Time;durP1;ratioP1;P1;durP2;ratioP2;P2;SDS_P1;SDS_P2;PMS_P1;PMS_P2;Temp;Humidity;BMP_temperature;BMP_pressure;BME280_temperature;BME280_humidity;BME280_pressure;Samples;Min_cycle;Max_cycle;Signal;HPM_P1;HPM_P2
2023/05/20 00:02:05;;;;;;;11.55;3.85;;;;;;;;;;5092245;28;20073;-73
2023/05/20 00:04:30;;;;;;;9.65;4.07;;;;;;;;;;5090915;28;20016;-71
2023/05/20 00:06:56;;;;;;;10.30;4.03;;;;;;;;;;5088523;28;20508;-74
2023/05/20 00:09:21;;;;;;;8.45;3.55;;;;;;;;;;5088985;28;20478;-74
2023/05/20 00:11:46;;;;;;;7.07;3.65;;;;;;;;;;5088776;28;20400;-74
2023/05/20 00:14:12;;;;;;;11.80;4.10;;;;;;;;;;5089918;28;20034;-71
2023/05/20 00:16:37;;;;;;;9.15;3.65;;;;;;;;;;5087976;28;20055;-72
2023/05/20 00:19:02;;;;;;;9.57;4.07;;;;;;;;;;5089061;28;20028;-76
2023/05/20 00:21:28;;;;;;;9.00;4.10;;;;;;;;;;5088579;28;20055;-74
2023/05/20 00:23:55;;;;;;;10.30;3.80;;;;;;;;;;5089640;28;20589;-74
2023/05/20 00:26:21;;;;;;;9.68;4.20;;;;;;;;;;5088435;28;20020;-74
2023/05/20 00:28:46;;;;;;;12.75;5.38;;;;;;;;;;5089170;28;20107;-76
2023/05/20 00:31:12;;;;;;;13.40;5.15;;;;;;;;;;5090036;28;20120;-75
2023/05/20 00:33:37;;;;;;;10.55;5.00;;;;;;;;;;5090143;28;20020;-76
2023/05/20 00:36:03;;;;;;;11.02;4.97;;;;;;;;;;5088929;28;20060;-76
2023/05/20 00:38:29;;;;;;;11.77;4.45;;;;;;;;;;5088096;28;20135;-76
2023/05/20 00:40:54;;;;;;;8.30;4.15;;;;;;;;;;5088756;28;20162;-76
2023/05/20 00:43:21;;;;;;;10.15;4.15;;;;;;;;;;5088949;28;20029;-75
2023/05/20 00:45:47;;;;;;;7.75;4.10;;;;;;;;;;5088536;28;20027;-76
2023/05/20 00:48:12;;;;;;;7.97;4.18;;;;;;;;;;5088097;28;20032;-73
2023/05/20 00:50:39;;;;;;;10.20;4.20;;;;;;;;;;5091373;28;20316;-75
2023/05/20 00:53:05;;;;;;;10.15;4.03;;;;;;;;;;5091489;28;20024;-75
2023/05/20 00:55:31;;;;;;;10.25;3.80;;;;;;;;;;5088678;28;20503;-75
2023/05/20 00:57:56;;;;;;;9.10;4.40;;;;;;;;;;5088132;28;20070;-75
2023/05/20 01:00:22;;;;;;;10.02;4.65;;;;;;;;;;5088490;28;20111;-73
2023/05/20 01:02:47;;;;;;;8.10;4.43;;;;;;;;;;5089332;28;20568;-72
2023/05/20 01:05:13;;;;;;;9.60;4.00;;;;;;;;;;5090451;28;20037;-72
2023/05/20 01:07:38;;;;;;;8.63;4.65;;;;;;;;;;5087763;28;20444;-75
2023/05/20 01:10:04;;;;;;;8.88;4.03;;;;;;;;;;5098514;28;20028;-77
2023/05/20 01:12:42;;;;;;;7.53;4.25;;;;;;;;;;5090998;28;20032;-77
2023/05/20 01:15:10;;;;;;;8.27;4.10;;;;;;;;;;5089896;28;20032;-76
2023/05/20 01:17:53;;;;;;;8.65;4.07;;;;;;;;;;5089671;28;20024;-77
2023/05/20 01:20:19;;;;;;;8.52;4.07;;;;;;;;;;5091074;28;20125;-77
2023/05/20 01:22:49;;;;;;;7.10;4.32;;;;;;;;;;5097094;28;20039;-76
2023/05/20 01:25:14;;;;;;;13.23;4.57;;;;;;;;;;5093287;28;20369;-76
2023/05/20 01:27:40;;;;;;;9.95;4.20;;;;;;;;;;5092984;28;20028;-76
2023/05/20 01:30:06;;;;;;;10.02;5.00;;;;;;;;;;5093050;28;20024;-76
2023/05/20 01:32:37;;;;;;;8.05;4.22;;;;;;;;;;5091066;28;20468;-77
2023/05/20 01:35:04;;;;;;;10.55;4.45;;;;;;;;;;5089161;28;20504;-76
2023/05/20 01:37:30;;;;;;;7.65;4.25;;;;;;;;;;5085896;28;20150;-76
2023/05/20 01:39:57;;;;;;;11.50;4.75;;;;;;;;;;5088977;28;20099;-76
2023/05/20 01:42:24;;;;;;;10.88;4.50;;;;;;;;;;5088241;28;20039;-77
2023/05/20 01:44:50;;;;;;;8.88;3.97;;;;;;;;;;5095078;28;20369;-76
2023/05/20 01:47:15;;;;;;;9.55;4.50;;;;;;;;;;5091430;28;20028;-76
2023/05/20 01:49:40;;;;;;;10.65;4.55;;;;;;;;;;5087982;28;20076;-76
2023/05/20 01:52:06;;;;;;;11.73;4.55;;;;;;;;;;5093515;28;20450;-76
2023/05/20 01:54:31;;;;;;;10.73;4.25;;;;;;;;;;5087478;28;20035;-76
2023/05/20 01:56:57;;;;;;;10.23;4.80;;;;;;;;;;5087751;28;20466;-76
2023/05/20 01:59:22;;;;;;;9.73;4.53;;;;;;;;;;5087709;28;20166;-76
2023/05/20 02:01:47;;;;;;;9.43;4.18;;;;;;;;;;5089288;28;20028;-75
2023/05/20 02:04:13;;;;;;;10.57;4.53;;;;;;;;;;5091464;28;20039;-77
2023/05/20 02:06:38;;;;;;;8.48;4.40;;;;;;;;;;5092533;28;20058;-76
2023/05/20 02:09:04;;;;;;;11.10;4.60;;;;;;;;;;5093310;28;20036;-75
2023/05/20 02:11:29;;;;;;;10.32;4.90;;;;;;;;;;5091491;28;20023;-75
2023/05/20 02:13:55;;;;;;;10.05;4.35;;;;;;;;;;5091001;28;20048;-76
2023/05/20 02:16:21;;;;;;;12.00;4.47;;;;;;;;;;5091361;28;20933;-76
2023/05/20 02:18:46;;;;;;;8.50;4.40;;;;;;;;;;5091044;28;20024;-75
2023/05/20 02:21:11;;;;;;;9.23;4.72;;;;;;;;;;5091100;28;20650;-76
2023/05/20 02:23:37;;;;;;;10.82;4.70;;;;;;;;;;5091243;28;20031;-75
2023/05/20 02:26:02;;;;;;;8.80;4.88;;;;;;;;;;5091001;28;20158;-76
2023/05/20 02:28:27;;;;;;;11.65;4.88;;;;;;;;;;5090723;28;20032;-76
2023/05/20 02:30:53;;;;;;;9.45;4.72;;;;;;;;;;5091084;28;20012;-74
2023/05/20 02:33:19;;;;;;;11.13;4.43;;;;;;;;;;5089176;28;20036;-76
2023/05/20 02:35:44;;;;;;;10.82;4.32;;;;;;;;;;5091014;28;20017;-75
2023/05/20 02:38:11;;;;;;;10.60;4.72;;;;;;;;;;5090881;28;20064;-76
2023/05/20 02:40:36;;;;;;;7.45;4.18;;;;;;;;;;5092329;28;20032;-76
2023/05/20 02:43:01;;;;;;;8.80;4.57;;;;;;;;;;5090830;28;20031;-77
2023/05/20 02:45:27;;;;;;;11.30;4.72;;;;;;;;;;5090405;28;20036;-75
2023/05/20 02:47:52;;;;;;;9.25;4.80;;;;;;;;;;5090385;28;20024;-76
2023/05/20 02:50:18;;;;;;;10.73;4.30;;;;;;;;;;5090254;28;20048;-76
2023/05/20 02:52:44;;;;;;;10.52;4.88;;;;;;;;;;5090084;28;20032;-74
2023/05/20 02:55:10;;;;;;;10.73;4.70;;;;;;;;;;5090447;28;20097;-76
2023/05/20 02:57:37;;;;;;;10.27;5.00;;;;;;;;;;5090418;28;20036;-76
2023/05/20 03:00:09;;;;;;;11.05;5.13;;;;;;;;;;5090373;28;20107;-73
2023/05/20 03:02:35;;;;;;;14.70;4.90;;;;;;;;;;5090327;28;20051;-76
2023/05/20 03:05:01;;;;;;;9.93;4.80;;;;;;;;;;5091091;28;20398;-74
2023/05/20 03:07:26;;;;;;;12.88;5.20;;;;;;;;;;5090142;28;20024;-74
2023/05/20 03:09:52;;;;;;;13.85;4.75;;;;;;;;;;5090258;28;20024;-76
2023/05/20 03:12:18;;;;;;;14.20;5.55;;;;;;;;;;5090328;28;20616;-76
2023/05/20 03:14:43;;;;;;;12.20;5.25;;;;;;;;;;5095995;28;20104;-74
2023/05/20 03:17:09;;;;;;;9.82;5.05;;;;;;;;;;5098300;28;20032;-76
2023/05/20 03:19:34;;;;;;;13.65;5.50;;;;;;;;;;5090948;28;20092;-76
2023/05/20 03:22:00;;;;;;;10.35;5.40;;;;;;;;;;5091533;28;20103;-75
2023/05/20 03:24:27;;;;;;;10.93;5.20;;;;;;;;;;5089589;28;20153;-76
2023/05/20 03:26:52;;;;;;;10.27;5.03;;;;;;;;;;5089867;28;20020;-76
2023/05/20 03:29:18;;;;;;;13.05;4.82;;;;;;;;;;5088083;28;20035;-76
2023/05/20 03:31:43;;;;;;;11.43;4.80;;;;;;;;;;5090253;28;20075;-72
2023/05/20 03:34:09;;;;;;;13.27;5.10;;;;;;;;;;5090889;28;20028;-75
2023/05/20 03:36:34;;;;;;;10.85;5.28;;;;;;;;;;5093016;28;20031;-72
2023/05/20 03:39:00;;;;;;;11.65;5.13;;;;;;;;;;5100048;28;20331;-74
2023/05/20 03:41:26;;;;;;;9.73;5.45;;;;;;;;;;5089512;28;20024;-73
2023/05/20 03:43:52;;;;;;;11.60;5.10;;;;;;;;;;5089469;28;20487;-75
2023/05/20 03:46:17;;;;;;;12.18;5.13;;;;;;;;;;5090205;28;20024;-72
2023/05/20 03:48:42;;;;;;;11.32;5.25;;;;;;;;;;5089306;28;20031;-73
2023/05/20 03:51:08;;;;;;;12.90;5.03;;;;;;;;;;5088244;28;20062;-76
2023/05/20 03:53:36;;;;;;;11.32;5.32;;;;;;;;;;5090047;28;20020;-75
2023/05/20 03:56:01;;;;;;;11.60;5.05;;;;;;;;;;5093599;28;20020;-74
2023/05/20 03:58:30;;;;;;;13.32;5.53;;;;;;;;;;5090316;28;20035;-73
2023/05/20 04:00:55;;;;;;;13.38;5.72;;;;;;;;;;5089906;28;20031;-75
2023/05/20 04:03:21;;;;;;;14.20;5.10;;;;;;;;;;5087828;28;20028;-75
2023/05/20 04:05:47;;;;;;;10.02;5.80;;;;;;;;;;5088844;28;20020;-74
2023/05/20 04:08:17;;;;;;;15.07;5.53;;;;;;;;;;5089040;28;20024;-72
2023/05/20 04:10:43;;;;;;;13.32;5.47;;;;;;;;;;5091581;28;20396;-74
2023/05/20 04:13:09;;;;;;;12.27;5.47;;;;;;;;;;5099261;28;20031;-73
2023/05/20 04:15:35;;;;;;;16.25;5.57;;;;;;;;;;5091024;28;20016;-75
2023/05/20 04:18:01;;;;;;;13.27;5.07;;;;;;;;;;5088590;28;20027;-76
2023/05/20 04:20:27;;;;;;;10.75;5.70;;;;;;;;;;5092137;28;20024;-74
2023/05/20 04:22:53;;;;;;;12.70;5.38;;;;;;;;;;5088583;28;20042;-76
2023/05/20 04:25:18;;;;;;;21.90;5.68;;;;;;;;;;5088215;28;20058;-75
2023/05/20 04:27:48;;;;;;;12.70;5.15;;;;;;;;;;5088954;28;20032;-72
2023/05/20 04:30:17;;;;;;;13.48;5.22;;;;;;;;;;5089729;28;20028;-75
2023/05/20 04:32:43;;;;;;;12.57;5.00;;;;;;;;;;5088524;28;20054;-75
2023/05/20 04:35:10;;;;;;;12.82;5.00;;;;;;;;;;5086980;28;20466;-75
2023/05/20 04:37:37;;;;;;;14.57;5.38;;;;;;;;;;5090441;28;20047;-75
2023/05/20 04:40:05;;;;;;;13.30;5.55;;;;;;;;;;5088299;28;20036;-76
2023/05/20 04:42:31;;;;;;;11.25;5.13;;;;;;;;;;5091622;28;20125;-75
2023/05/20 04:44:58;;;;;;;12.55;5.20;;;;;;;;;;5092692;28;20028;-75
2023/05/20 04:47:23;;;;;;;12.02;5.28;;;;;;;;;;5095976;28;20117;-73
2023/05/20 04:49:49;;;;;;;13.20;5.28;;;;;;;;;;5093848;28;20028;-75
2023/05/20 04:52:15;;;;;;;11.32;4.97;;;;;;;;;;5094156;28;20035;-76
2023/05/20 04:54:40;;;;;;;17.60;5.70;;;;;;;;;;5091671;28;20046;-75
2023/05/20 04:57:06;;;;;;;14.55;5.47;;;;;;;;;;5091924;28;20024;-75
2023/05/20 04:59:31;;;;;;;12.13;5.85;;;;;;;;;;5088338;28;20039;-75
2023/05/20 05:01:56;;;;;;;11.85;5.63;;;;;;;;;;5088939;28;20110;-75
2023/05/20 05:04:22;;;;;;;12.30;5.30;;;;;;;;;;5088247;28;20039;-75
2023/05/20 05:06:48;;;;;;;11.15;5.68;;;;;;;;;;5087905;28;20059;-73
2023/05/20 05:09:14;;;;;;;16.25;6.07;;;;;;;;;;5088077;28;20036;-76
2023/05/20 05:11:39;;;;;;;14.98;5.90;;;;;;;;;;5088114;28;20487;-75
2023/05/20 05:14:05;;;;;;;10.15;5.72;;;;;;;;;;5088163;28;20129;-75
2023/05/20 05:16:30;;;;;;;15.85;5.85;;;;;;;;;;5088104;28;20120;-76
2023/05/20 05:18:55;;;;;;;16.00;5.78;;;;;;;;;;5088295;28;20024;-75
2023/05/20 05:21:21;;;;;;;13.55;5.60;;;;;;;;;;5089065;28;20043;-75
2023/05/20 05:23:46;;;;;;;11.68;5.72;;;;;;;;;;5089169;28;20032;-76
2023/05/20 05:26:12;;;;;;;14.35;5.30;;;;;;;;;;5088088;28;20028;-76
2023/05/20 05:28:37;;;;;;;10.50;5.43;;;;;;;;;;5087861;28;20085;-74
2023/05/20 05:31:03;;;;;;;14.48;6.03;;;;;;;;;;5087836;28;20032;-75
2023/05/20 05:33:29;;;;;;;11.90;5.35;;;;;;;;;;5088322;28;20516;-75
2023/05/20 05:35:57;;;;;;;14.57;5.47;;;;;;;;;;5088039;28;20521;-75
2023/05/20 05:38:23;;;;;;;14.20;5.95;;;;;;;;;;5091357;28;20067;-75
2023/05/20 05:40:52;;;;;;;10.73;6.07;;;;;;;;;;5091574;28;20067;-75
2023/05/20 05:43:17;;;;;;;11.93;5.55;;;;;;;;;;5091861;28;20031;-73
2023/05/20 05:45:43;;;;;;;12.32;6.00;;;;;;;;;;5091529;28;20490;-75
2023/05/20 05:48:08;;;;;;;13.82;5.53;;;;;;;;;;5091653;28;20084;-73
2023/05/20 05:50:33;;;;;;;14.85;5.50;;;;;;;;;;5093235;28;20129;-75
2023/05/20 05:52:59;;;;;;;14.48;5.32;;;;;;;;;;5093295;28;20040;-73
2023/05/20 05:55:24;;;;;;;14.32;5.90;;;;;;;;;;5091642;28;20043;-74
2023/05/20 05:57:50;;;;;;;14.70;5.70;;;;;;;;;;5091669;28;20024;-73
2023/05/20 06:00:16;;;;;;;11.95;5.53;;;;;;;;;;5089803;28;20028;-73
2023/05/20 06:02:41;;;;;;;12.15;5.75;;;;;;;;;;5091596;28;20024;-72
2023/05/20 06:05:07;;;;;;;15.23;5.60;;;;;;;;;;5092361;28;20395;-74
2023/05/20 06:07:33;;;;;;;10.20;5.30;;;;;;;;;;5092131;28;20165;-73
2023/05/20 06:09:58;;;;;;;14.27;5.18;;;;;;;;;;5091261;28;20522;-74
2023/05/20 06:12:23;;;;;;;10.85;5.30;;;;;;;;;;5091264;28;20067;-73
2023/05/20 06:14:49;;;;;;;13.57;5.82;;;;;;;;;;5091516;28;20090;-73
2023/05/20 06:17:14;;;;;;;14.95;5.90;;;;;;;;;;5091260;28;20361;-74
2023/05/20 06:19:39;;;;;;;14.23;5.60;;;;;;;;;;5090998;28;20032;-74
2023/05/20 06:22:05;;;;;;;13.45;5.50;;;;;;;;;;5090631;28;20020;-74
2023/05/20 06:24:30;;;;;;;12.85;5.68;;;;;;;;;;5091546;28;20031;-75
2023/05/20 06:26:56;;;;;;;20.88;5.95;;;;;;;;;;5090911;28;20507;-73
2023/05/20 06:29:22;;;;;;;13.20;5.63;;;;;;;;;;5090794;28;20528;-73
2023/05/20 06:31:48;;;;;;;13.73;4.97;;;;;;;;;;5090899;28;20074;-74
2023/05/20 06:34:13;;;;;;;15.95;6.00;;;;;;;;;;5091127;28;20048;-74
2023/05/20 06:36:38;;;;;;;10.40;5.22;;;;;;;;;;5090191;28;20043;-74
2023/05/20 06:39:06;;;;;;;14.18;5.05;;;;;;;;;;5092619;28;20323;-74
2023/05/20 06:41:31;;;;;;;13.30;5.40;;;;;;;;;;5091674;28;20451;-74
2023/05/20 06:43:57;;;;;;;10.88;5.25;;;;;;;;;;5090755;28;20095;-74
2023/05/20 06:46:22;;;;;;;12.48;5.85;;;;;;;;;;5090580;28;20032;-74
2023/05/20 06:48:48;;;;;;;14.57;5.57;;;;;;;;;;5087576;28;20032;-74
2023/05/20 06:51:13;;;;;;;12.45;5.55;;;;;;;;;;5088952;28;20024;-73
2023/05/20 06:53:38;;;;;;;14.45;5.10;;;;;;;;;;5089241;28;20172;-74
2023/05/20 06:56:04;;;;;;;13.55;5.32;;;;;;;;;;5089976;28;20454;-74
2023/05/20 06:58:29;;;;;;;10.73;5.40;;;;;;;;;;5092359;28;20024;-74
2023/05/20 07:00:55;;;;;;;12.07;5.25;;;;;;;;;;5092487;28;20040;-74
2023/05/20 07:03:20;;;;;;;14.48;5.50;;;;;;;;;;5090367;28;20024;-76
2023/05/20 07:05:47;;;;;;;13.68;5.47;;;;;;;;;;5090377;28;20610;-76
2023/05/20 07:08:12;;;;;;;12.02;4.95;;;;;;;;;;5090156;28;20071;-76
2023/05/20 07:10:37;;;;;;;11.38;5.35;;;;;;;;;;5078918;28;20511;-77
2023/05/20 07:13:03;;;;;;;11.50;5.30;;;;;;;;;;5089649;28;20020;-77
2023/05/20 07:15:28;;;;;;;15.52;5.25;;;;;;;;;;5090051;28;20032;-75
2023/05/20 07:17:57;;;;;;;16.77;5.45;;;;;;;;;;5089526;28;20024;-77
2023/05/20 07:20:23;;;;;;;13.45;5.20;;;;;;;;;;5089903;28;20024;-77
2023/05/20 07:22:49;;;;;;;14.50;5.07;;;;;;;;;;5087371;28;20028;-76
2023/05/20 07:25:15;;;;;;;11.10;5.40;;;;;;;;;;5090235;28;20028;-77
2023/05/20 07:27:40;;;;;;;11.05;4.97;;;;;;;;;;5097216;28;20219;-72
2023/05/20 07:30:07;;;;;;;10.32;4.70;;;;;;;;;;5100380;28;20039;-72
2023/05/20 07:32:32;;;;;;;10.07;5.18;;;;;;;;;;5106678;28;20035;-74
2023/05/20 07:34:58;;;;;;;12.98;4.78;;;;;;;;;;5100540;28;20023;-73
2023/05/20 07:37:23;;;;;;;9.82;4.90;;;;;;;;;;5100793;28;20055;-73
2023/05/20 07:39:48;;;;;;;12.18;4.90;;;;;;;;;;5099471;28;20031;-73
2023/05/20 07:42:14;;;;;;;11.02;4.60;;;;;;;;;;5089511;28;20036;-73
2023/05/20 07:44:39;;;;;;;10.05;5.20;;;;;;;;;;5094368;28;20028;-73
2023/05/20 07:47:05;;;;;;;9.80;5.10;;;;;;;;;;5085009;28;20028;-73
2023/05/20 07:49:30;;;;;;;9.52;4.85;;;;;;;;;;5094129;28;20070;-73
2023/05/20 07:51:56;;;;;;;11.35;4.75;;;;;;;;;;5095359;28;20032;-73
2023/05/20 07:54:22;;;;;;;12.35;4.85;;;;;;;;;;5092268;28;20085;-74
2023/05/20 07:56:47;;;;;;;13.27;4.97;;;;;;;;;;5090667;28;20024;-73
2023/05/20 07:59:13;;;;;;;9.25;4.90;;;;;;;;;;5094245;28;20505;-73
2023/05/20 08:01:40;;;;;;;11.38;4.60;;;;;;;;;;5088921;28;20035;-73
2023/05/20 08:04:06;;;;;;;9.38;4.35;;;;;;;;;;5100155;28;20062;-73
2023/05/20 08:06:31;;;;;;;9.98;4.40;;;;;;;;;;5093602;28;20019;-73
2023/05/20 08:08:57;;;;;;;8.55;4.35;;;;;;;;;;5098890;28;20028;-73
2023/05/20 08:11:23;;;;;;;10.82;4.53;;;;;;;;;;5100656;28;20312;-73
2023/05/20 08:13:48;;;;;;;11.00;4.45;;;;;;;;;;5100666;28;20016;-73
2023/05/20 08:16:14;;;;;;;12.82;4.47;;;;;;;;;;5099800;28;20023;-73
2023/05/20 08:18:39;;;;;;;8.90;4.30;;;;;;;;;;5098110;28;20085;-73
2023/05/20 08:21:09;;;;;;;10.95;4.53;;;;;;;;;;5099726;28;20023;-72
2023/05/20 08:23:35;;;;;;;13.32;4.35;;;;;;;;;;5100337;28;20216;-72
2023/05/20 08:26:03;;;;;;;8.77;4.00;;;;;;;;;;5100212;28;20040;-73
2023/05/20 08:28:29;;;;;;;8.98;4.40;;;;;;;;;;5099940;28;20051;-73
2023/05/20 08:30:55;;;;;;;10.38;4.30;;;;;;;;;;5098272;28;20028;-73
2023/05/20 08:33:21;;;;;;;9.73;3.83;;;;;;;;;;5095675;28;20039;-73
2023/05/20 08:35:47;;;;;;;11.45;3.85;;;;;;;;;;5097268;28;20024;-73
2023/05/20 08:38:12;;;;;;;8.15;4.15;;;;;;;;;;5096001;28;20078;-73
2023/05/20 08:40:38;;;;;;;8.95;4.10;;;;;;;;;;5098409;28;20012;-73
2023/05/20 08:43:04;;;;;;;11.23;3.72;;;;;;;;;;5099617;28;20046;-73
2023/05/20 08:45:32;;;;;;;9.23;4.00;;;;;;;;;;5098995;28;20028;-73
2023/05/20 08:47:57;;;;;;;9.32;3.75;;;;;;;;;;5091752;28;20027;-73
2023/05/20 08:50:23;;;;;;;12.85;4.28;;;;;;;;;;5086401;28;20115;-73
2023/05/20 08:52:48;;;;;;;6.50;3.40;;;;;;;;;;5096501;28;20036;-73
2023/05/20 08:55:23;;;;;;;6.40;3.10;;;;;;;;;;5091408;28;20016;-73
2023/05/20 08:57:55;;;;;;;8.45;3.70;;;;;;;;;;5090466;28;20031;-73
2023/05/20 09:00:25;;;;;;;11.18;3.53;;;;;;;;;;5092492;28;20182;-73
2023/05/20 09:02:52;;;;;;;7.18;3.80;;;;;;;;;;5091463;28;20019;-73
2023/05/20 09:05:18;;;;;;;11.85;3.65;;;;;;;;;;5092131;28;20573;-73
2023/05/20 09:07:43;;;;;;;8.73;4.00;;;;;;;;;;5094219;28;20020;-73
2023/05/20 09:10:10;;;;;;;9.05;3.80;;;;;;;;;;5088900;28;20073;-73
2023/05/20 09:12:36;;;;;;;11.95;4.43;;;;;;;;;;5097227;28;20020;-73
2023/05/20 09:15:01;;;;;;;9.90;4.13;;;;;;;;;;5100211;28;20083;-73
2023/05/20 09:17:27;;;;;;;14.38;3.70;;;;;;;;;;5096380;28;20071;-73
2023/05/20 09:19:53;;;;;;;7.18;3.75;;;;;;;;;;5095328;28;20031;-73
2023/05/20 09:22:27;;;;;;;10.68;3.97;;;;;;;;;;5100525;28;20032;-72
2023/05/20 09:24:52;;;;;;;14.13;4.28;;;;;;;;;;5097916;28;20020;-72
2023/05/20 09:27:19;;;;;;;7.82;3.80;;;;;;;;;;5092872;28;20030;-73
2023/05/20 09:29:47;;;;;;;7.88;3.58;;;;;;;;;;5096236;28;20090;-72
2023/05/20 09:32:13;;;;;;;8.48;3.63;;;;;;;;;;5097447;28;20051;-72
2023/05/20 09:34:38;;;;;;;10.80;3.72;;;;;;;;;;5090479;28;20093;-73
2023/05/20 09:37:06;;;;;;;8.80;3.97;;;;;;;;;;5090770;28;20036;-73
2023/05/20 09:39:35;;;;;;;9.75;3.92;;;;;;;;;;5096625;28;20039;-73
2023/05/20 09:42:05;;;;;;;11.55;4.25;;;;;;;;;;5097006;28;20085;-73
2023/05/20 09:44:32;;;;;;;10.70;3.80;;;;;;;;;;5096555;28;20115;-73
2023/05/20 09:46:59;;;;;;;9.07;3.90;;;;;;;;;;5093706;28;20036;-72
2023/05/20 09:49:27;;;;;;;9.27;3.80;;;;;;;;;;5095764;28;20083;-72
2023/05/20 09:51:53;;;;;;;9.30;3.80;;;;;;;;;;5100758;28;20024;-72
2023/05/20 09:54:20;;;;;;;11.23;3.58;;;;;;;;;;5092422;28;20028;-73
2023/05/20 09:56:46;;;;;;;12.18;3.90;;;;;;;;;;5092021;28;20038;-73
2023/05/20 09:59:16;;;;;;;8.38;3.42;;;;;;;;;;5091380;28;20032;-73
2023/05/20 10:01:41;;;;;;;9.43;3.53;;;;;;;;;;5092803;28;20020;-73
2023/05/20 10:04:09;;;;;;;8.20;3.45;;;;;;;;;;5090723;28;20026;-73
2023/05/20 10:06:40;;;;;;;9.45;3.67;;;;;;;;;;5091837;28;20338;-73
2023/05/20 10:09:18;;;;;;;8.18;3.70;;;;;;;;;;5091862;28;20100;-73
2023/05/20 10:12:15;;;;;;;7.38;3.60;;;;;;;;;;5091316;28;20060;-73
2023/05/20 10:14:54;;;;;;;9.20;3.15;;;;;;;;;;5092061;28;20527;-73
2023/05/20 10:17:23;;;;;;;7.30;2.92;;;;;;;;;;5090866;28;20031;-73
2023/05/20 10:19:49;;;;;;;7.43;3.42;;;;;;;;;;5090071;28;20028;-74
2023/05/20 10:22:27;;;;;;;8.35;3.35;;;;;;;;;;5093182;28;20632;-73
2023/05/20 10:24:59;;;;;;;8.82;3.17;;;;;;;;;;5090975;28;20497;-73
2023/05/20 10:27:24;;;;;;;5.25;3.03;;;;;;;;;;5090742;28;20046;-73
2023/05/20 10:29:54;;;;;;;7.50;3.15;;;;;;;;;;5089303;28;20047;-73
2023/05/20 10:32:34;;;;;;;9.05;2.80;;;;;;;;;;5091586;28;20034;-73
2023/05/20 10:35:03;;;;;;;8.77;2.90;;;;;;;;;;5090032;28;20729;-73
2023/05/20 10:37:31;;;;;;;7.97;3.00;;;;;;;;;;5090168;28;20101;-73
2023/05/20 10:40:05;;;;;;;7.50;3.10;;;;;;;;;;5090277;28;20032;-73
2023/05/20 10:42:31;;;;;;;6.57;2.60;;;;;;;;;;5090580;28;20035;-73
2023/05/20 10:44:56;;;;;;;4.50;2.58;;;;;;;;;;5093259;28;20043;-73
2023/05/20 10:47:22;;;;;;;5.95;2.55;;;;;;;;;;5097021;28;20028;-74
2023/05/20 10:49:47;;;;;;;7.03;2.75;;;;;;;;;;5102100;28;20028;-74
2023/05/20 10:52:14;;;;;;;7.55;2.60;;;;;;;;;;5101950;28;20096;-74
2023/05/20 10:54:47;;;;;;;6.90;2.47;;;;;;;;;;5102182;28;20043;-74
2023/05/20 10:57:13;;;;;;;8.10;2.60;;;;;;;;;;5102221;28;20024;-74
2023/05/20 10:59:39;;;;;;;8.75;2.83;;;;;;;;;;5101130;28;20036;-75
2023/05/20 11:02:05;;;;;;;4.78;2.50;;;;;;;;;;5102017;28;20032;-74
2023/05/20 11:04:31;;;;;;;6.97;2.83;;;;;;;;;;5100664;28;20032;-76
2023/05/20 11:06:57;;;;;;;7.80;2.70;;;;;;;;;;5098055;28;20051;-74
2023/05/20 11:09:23;;;;;;;7.78;3.00;;;;;;;;;;5089230;28;20331;-74
2023/05/20 11:11:50;;;;;;;7.93;2.60;;;;;;;;;;5100795;28;20016;-74
2023/05/20 11:14:17;;;;;;;7.90;3.08;;;;;;;;;;5100444;28;20035;-73
2023/05/20 11:16:42;;;;;;;8.45;2.85;;;;;;;;;;5101437;28;20355;-73
2023/05/20 11:19:13;;;;;;;6.78;2.30;;;;;;;;;;5099984;28;20039;-73
2023/05/20 11:21:43;;;;;;;3.75;2.10;;;;;;;;;;5098218;28;20381;-73
2023/05/20 11:24:08;;;;;;;8.35;3.00;;;;;;;;;;5101466;28;20213;-73
2023/05/20 11:26:34;;;;;;;6.57;2.63;;;;;;;;;;5101007;28;20031;-74
2023/05/20 11:29:00;;;;;;;5.47;2.47;;;;;;;;;;5099050;28;20500;-73
2023/05/20 11:31:26;;;;;;;7.63;2.38;;;;;;;;;;5101429;28;20063;-76
2023/05/20 11:33:52;;;;;;;4.68;2.30;;;;;;;;;;5101412;28;20258;-74
2023/05/20 11:36:17;;;;;;;7.00;2.30;;;;;;;;;;5101006;28;20055;-72
2023/05/20 11:38:46;;;;;;;5.10;2.45;;;;;;;;;;5098877;28;20042;-73
2023/05/20 11:41:11;;;;;;;6.20;2.38;;;;;;;;;;5100493;28;20028;-72
2023/05/20 11:43:36;;;;;;;6.20;2.50;;;;;;;;;;5099347;28;20070;-73
2023/05/20 11:46:04;;;;;;;4.70;2.30;;;;;;;;;;5097972;28;20016;-73
2023/05/20 11:48:29;;;;;;;4.60;2.13;;;;;;;;;;5099674;28;20028;-73
2023/05/20 11:50:56;;;;;;;4.47;2.00;;;;;;;;;;5101072;28;20023;-73
2023/05/20 11:53:22;;;;;;;4.82;1.95;;;;;;;;;;5100531;28;20043;-72
2023/05/20 11:55:52;;;;;;;5.55;1.90;;;;;;;;;;5100980;28;20312;-73
2023/05/20 11:58:20;;;;;;;5.20;1.90;;;;;;;;;;5101006;28;20354;-74
2023/05/20 12:00:46;;;;;;;4.85;1.80;;;;;;;;;;5100685;28;20315;-71
2023/05/20 12:03:11;;;;;;;4.53;2.00;;;;;;;;;;5100732;28;20406;-72
2023/05/20 12:05:37;;;;;;;4.88;1.80;;;;;;;;;;5099737;28;20330;-72
2023/05/20 12:08:04;;;;;;;4.13;2.00;;;;;;;;;;5099688;28;20039;-71
2023/05/20 12:10:30;;;;;;;3.65;1.80;;;;;;;;;;5099135;28;20032;-74
2023/05/20 12:12:55;;;;;;;5.10;1.92;;;;;;;;;;5098696;28;20059;-71
2023/05/20 12:15:20;;;;;;;5.18;2.08;;;;;;;;;;5097606;28;20028;-71
2023/05/20 12:17:48;;;;;;;5.88;1.92;;;;;;;;;;5097650;28;20020;-73
2023/05/20 12:20:16;;;;;;;3.70;1.80;;;;;;;;;;5098219;28;20028;-72
2023/05/20 12:22:45;;;;;;;3.72;1.88;;;;;;;;;;5099974;28;20023;-72
2023/05/20 12:39:43;;;;;;;6.07;1.90;;;;;;;;;;5077505;28;20391;-74
2023/05/20 12:52:23;;;;;;;4.95;2.20;;;;;;;;;;5138214;27;20387;-73
2023/05/20 12:54:48;;;;;;;4.53;1.92;;;;;;;;;;5138493;28;20044;-74
2023/05/20 12:57:14;;;;;;;5.97;1.92;;;;;;;;;;5138685;28;20050;-77
2023/05/20 12:59:39;;;;;;;6.05;2.20;;;;;;;;;;5138549;28;20034;-71
2023/05/20 13:02:05;;;;;;;4.85;2.17;;;;;;;;;;5138501;28;20028;-70
2023/05/20 13:04:31;;;;;;;3.78;1.75;;;;;;;;;;5138250;28;20035;-72
2023/05/20 13:06:57;;;;;;;7.03;1.90;;;;;;;;;;5118248;28;20053;-75
2023/05/20 13:09:22;;;;;;;4.78;2.15;;;;;;;;;;5119512;28;20061;-71
2023/05/20 13:11:48;;;;;;;3.97;1.73;;;;;;;;;;5138154;28;20019;-71
2023/05/20 13:14:14;;;;;;;4.78;2.13;;;;;;;;;;5137908;28;20303;-72
2023/05/20 13:16:39;;;;;;;4.78;1.92;;;;;;;;;;5137994;28;20295;-74
2023/05/20 13:19:05;;;;;;;3.88;1.77;;;;;;;;;;5135297;28;20261;-74
2023/05/20 13:21:30;;;;;;;3.15;1.80;;;;;;;;;;5137642;28;20042;-74
2023/05/20 13:23:56;;;;;;;4.75;1.60;;;;;;;;;;5137750;28;20370;-74
2023/05/20 13:26:22;;;;;;;3.25;1.67;;;;;;;;;;5135721;28;20023;-70
2023/05/20 13:28:47;;;;;;;5.90;1.63;;;;;;;;;;5134837;28;20467;-71
2023/05/20 13:31:13;;;;;;;3.85;1.70;;;;;;;;;;5135865;28;20038;-72
2023/05/20 13:33:38;;;;;;;4.18;1.73;;;;;;;;;;5137558;28;20431;-71
2023/05/20 13:36:04;;;;;;;3.80;1.70;;;;;;;;;;5122457;27;20021;-72
2023/05/20 13:38:33;;;;;;;3.70;1.70;;;;;;;;;;5156979;27;20037;-78
2023/05/20 13:40:59;;;;;;;4.18;1.80;;;;;;;;;;5118124;28;20034;-71
2023/05/20 13:43:25;;;;;;;3.22;1.60;;;;;;;;;;5137282;28;20125;-71
2023/05/20 13:45:51;;;;;;;5.07;1.60;;;;;;;;;;5130406;28;20504;-70
2023/05/20 13:48:17;;;;;;;3.10;1.48;;;;;;;;;;5128854;27;20020;-71
2023/05/20 13:50:42;;;;;;;5.95;1.80;;;;;;;;;;5104947;28;20031;-71
2023/05/20 13:53:11;;;;;;;4.18;1.77;;;;;;;;;;5136869;27;20327;-70
2023/05/20 13:55:37;;;;;;;7.15;1.88;;;;;;;;;;5134403;28;20103;-71
2023/05/20 13:58:04;;;;;;;5.65;1.75;;;;;;;;;;5136673;28;20023;-71
2023/05/20 14:00:30;;;;;;;3.67;1.80;;;;;;;;;;5136641;28;20031;-71
2023/05/20 14:02:56;;;;;;;5.90;1.90;;;;;;;;;;5127801;28;20283;-72
2023/05/20 14:05:22;;;;;;;4.25;1.73;;;;;;;;;;5123041;28;20027;-70
2023/05/20 14:07:47;;;;;;;4.43;1.77;;;;;;;;;;5122635;28;20027;-71
2023/05/20 14:10:12;;;;;;;5.32;1.80;;;;;;;;;;5123690;27;20027;-70
2023/05/20 14:12:38;;;;;;;3.95;1.60;;;;;;;;;;5122964;28;20096;-71
2023/05/20 14:15:04;;;;;;;3.55;1.50;;;;;;;;;;5122898;28;20020;-71
2023/05/20 14:17:29;;;;;;;3.83;1.52;;;;;;;;;;5122755;28;20020;-70
2023/05/20 14:19:54;;;;;;;3.55;1.60;;;;;;;;;;5121566;28;20012;-71
2023/05/20 14:22:20;;;;;;;3.38;1.67;;;;;;;;;;5118007;28;20300;-71
2023/05/20 14:24:45;;;;;;;4.32;1.50;;;;;;;;;;5118345;28;20041;-71
2023/05/20 14:27:11;;;;;;;3.85;1.70;;;;;;;;;;5120281;28;20026;-70
2023/05/20 14:29:36;;;;;;;2.85;1.50;;;;;;;;;;5118235;28;20026;-71
2023/05/20 14:32:03;;;;;;;3.53;1.67;;;;;;;;;;5115629;28;20375;-71
2023/05/20 14:34:29;;;;;;;4.35;1.70;;;;;;;;;;5110633;28;20016;-71
2023/05/20 14:36:55;;;;;;;2.53;1.38;;;;;;;;;;5117587;28;20020;-71
2023/05/20 14:39:21;;;;;;;5.22;2.00;;;;;;;;;;5116173;28;20047;-72
2023/05/20 14:41:47;;;;;;;4.88;1.88;;;;;;;;;;5123683;27;20509;-79
2023/05/20 14:44:12;;;;;;;3.80;1.60;;;;;;;;;;5090772;28;20023;-71
2023/05/20 14:46:38;;;;;;;3.50;1.67;;;;;;;;;;5108218;28;20059;-70
2023/05/20 14:49:03;;;;;;;2.72;1.50;;;;;;;;;;5109678;28;20016;-71
2023/05/20 14:51:28;;;;;;;4.15;1.52;;;;;;;;;;5110237;28;20170;-71
2023/05/20 14:53:54;;;;;;;3.22;1.50;;;;;;;;;;5109034;28;20518;-71
2023/05/20 14:56:20;;;;;;;5.18;1.50;;;;;;;;;;5108951;28;20431;-71